Time;durP1;ratioP1;P1;durP2;ratioP2;P2;SDS_P1;SDS_P2;PMS_P1;PMS_P2;Temp;Humidity;BMP_temperature;BMP_pressure;BME280_temperature;BME280_humidity;BME280_pressure;Samples;Min_cycle;Max_cycle;Signal;HPM_P1;HPM_P2
2022/08/14 00:00:27;;;;;;;1.00;0.20;;;14.80;85.30;;;;;;4991538;28;20880;-72
2022/08/14 00:02:54;;;;;;;0.30;0.30;;;14.90;83.20;;;;;;4991906;28;20388;-71
2022/08/14 00:05:22;;;;;;;0.88;0.30;;;15.00;87.10;;;;;;4991135;28;20405;-72
2022/08/14 00:07:50;;;;;;;0.20;0.20;;;15.10;83.50;;;;;;4991699;28;20388;-73
2022/08/14 00:10:20;;;;;;;0.25;0.20;;;15.20;82.30;;;;;;4991928;28;20393;-73
2022/08/14 00:12:51;;;;;;;0.37;0.20;;;15.30;81.80;;;;;;4969325;28;20385;-72
2022/08/14 00:15:29;;;;;;;0.28;0.20;;;15.30;81.60;;;;;;4991311;28;20412;-72
2022/08/14 00:17:56;;;;;;;0.20;0.20;;;15.50;81.00;;;;;;4991748;28;20428;-74
2022/08/14 00:20:28;;;;;;;0.30;0.22;;;15.30;80.30;;;;;;4991850;28;20422;-74
2022/08/14 00:22:55;;;;;;;0.90;0.30;;;15.10;80.00;;;;;;4991955;28;20373;-71
2022/08/14 00:25:23;;;;;;;0.80;0.20;;;15.10;82.80;;;;;;4991960;28;20852;-71
2022/08/14 00:27:50;;;;;;;0.25;0.25;;;15.00;83.70;;;;;;4991687;28;20864;-71
2022/08/14 00:30:17;;;;;;;0.55;0.30;;;15.00;82.90;;;;;;4991593;28;20467;-72
2022/08/14 00:32:44;;;;;;;0.20;0.20;;;14.90;81.00;;;;;;4991573;28;20396;-76
2022/08/14 00:35:12;;;;;;;0.60;0.20;;;14.90;83.80;;;;;;4991163;28;20550;-71
2022/08/14 00:37:41;;;;;;;0.20;0.20;;;15.00;82.10;;;;;;4991233;28;20476;-70
2022/08/14 00:40:11;;;;;;;0.13;0.13;;;15.00;79.80;;;;;;4996986;28;20385;-72
2022/08/14 00:42:39;;;;;;;0.20;0.20;;;15.10;81.00;;;;;;5008172;28;20396;-71
2022/08/14 00:45:09;;;;;;;0.88;0.30;;;15.10;79.30;;;;;;5005841;28;20603;-72
2022/08/14 00:47:36;;;;;;;0.90;0.20;;;15.20;77.80;;;;;;5008521;28;20508;-71
2022/08/14 00:50:06;;;;;;;0.20;0.20;;;15.20;76.70;;;;;;4995172;28;20411;-72
2022/08/14 00:52:34;;;;;;;0.33;0.20;;;15.10;75.60;;;;;;4994182;28;20892;-72
2022/08/14 00:55:02;;;;;;;0.95;0.28;;;15.00;76.40;;;;;;4996496;28;20752;-72
2022/08/14 00:57:32;;;;;;;0.63;0.30;;;15.00;78.10;;;;;;4998469;28;20385;-74
2022/08/14 00:59:59;;;;;;;0.50;0.20;;;15.00;78.40;;;;;;4999329;28;20377;-75
2022/08/14 01:02:27;;;;;;;0.30;0.30;;;15.00;76.60;;;;;;4999084;28;20561;-71
2022/08/14 01:04:59;;;;;;;0.30;0.30;;;15.10;78.10;;;;;;5014259;28;20477;-72
2022/08/14 01:07:28;;;;;;;0.75;0.30;;;15.20;76.30;;;;;;5016652;28;20392;-72
2022/08/14 01:09:57;;;;;;;0.25;0.20;;;15.30;74.30;;;;;;4999382;28;20423;-73
2022/08/14 01:12:26;;;;;;;0.57;0.20;;;15.40;76.60;;;;;;4990430;28;20387;-74
2022/08/14 01:14:54;;;;;;;1.50;0.50;;;15.50;73.90;;;;;;4991466;28;20463;-73
2022/08/14 01:21:02;;;;;;;13.90;1.55;;;15.40;73.00;;;;;;4984943;28;20432;-73
2022/08/14 01:23:07;;;;;;;0.52;0.32;;;15.30;73.00;;;;;;4912543;29;20412;-72
2022/08/14 01:25:36;;;;;;;0.50;0.30;;;15.30;73.20;;;;;;4909031;29;20944;-72
2022/08/14 01:28:03;;;;;;;5.70;5.07;;;15.50;69.80;;;;;;4925385;29;20473;-73
2022/08/14 01:30:31;;;;;;;17.92;13.68;;;15.60;70.70;;;;;;4908205;29;20385;-80
2022/08/14 01:32:58;;;;;;;38.30;24.73;;;15.70;70.90;;;;;;4930517;29;20456;-73
2022/08/14 01:35:27;;;;;;;2.17;1.30;;;15.90;70.20;;;;;;4913383;29;20819;-74
2022/08/14 01:37:54;;;;;;;0.55;0.20;;;16.10;69.40;;;;;;4922612;29;20461;-74
2022/08/14 01:40:27;;;;;;;0.20;0.20;;;16.20;67.80;;;;;;4916640;29;20408;-73
2022/08/14 01:42:54;;;;;;;0.40;0.32;;;16.40;68.00;;;;;;4913404;29;20386;-74
2022/08/14 01:45:22;;;;;;;0.90;0.90;;;16.20;65.90;;;;;;4934072;29;20410;-73
2022/08/14 01:47:49;;;;;;;1.08;0.28;;;16.00;66.40;;;;;;4916084;29;20423;-73
2022/08/14 01:50:17;;;;;;;0.50;0.20;;;16.00;69.20;;;;;;4926353;29;20397;-73
2022/08/14 01:52:45;;;;;;;0.60;0.40;;;15.90;68.50;;;;;;4921640;29;20397;-73
2022/08/14 01:55:14;;;;;;;0.20;0.20;;;15.80;69.10;;;;;;4923419;29;20411;-73
2022/08/14 01:57:44;;;;;;;0.60;0.30;;;15.90;69.00;;;;;;4919095;29;20404;-73
2022/08/14 02:00:17;;;;;;;0.30;0.30;;;16.00;69.50;;;;;;4963881;28;20800;-73
2022/08/14 02:03:00;;;;;;;1.48;0.40;;;15.90;69.60;;;;;;4994204;28;20447;-73
2022/08/14 02:05:30;;;;;;;1.30;0.40;;;15.80;69.70;;;;;;4993595;28;20412;-73
2022/08/14 02:07:57;;;;;;;0.60;0.40;;;15.80;71.20;;;;;;4993694;28;20805;-73
2022/08/14 02:10:27;;;;;;;0.32;0.30;;;16.00;70.60;;;;;;4993117;28;20472;-73
2022/08/14 02:12:56;;;;;;;0.40;0.30;;;16.20;70.00;;;;;;4982047;28;20395;-72
2022/08/14 02:15:24;;;;;;;0.57;0.30;;;16.10;70.80;;;;;;4992092;28;20384;-74
2022/08/14 02:17:51;;;;;;;0.50;0.25;;;16.10;70.10;;;;;;4993634;28;20424;-73
2022/08/14 02:20:19;;;;;;;0.40;0.30;;;16.40;71.40;;;;;;4993695;28;20377;-73
2022/08/14 02:22:46;;;;;;;0.38;0.30;;;16.50;68.50;;;;;;4993651;28;20400;-73
2022/08/14 02:25:14;;;;;;;0.70;0.25;;;16.40;70.10;;;;;;4992833;28;20467;-73
2022/08/14 02:27:41;;;;;;;0.70;0.20;;;16.20;70.20;;;;;;4990759;28;20479;-73
2022/08/14 02:30:11;;;;;;;0.20;0.20;;;16.10;70.50;;;;;;4993727;28;20384;-74
2022/08/14 02:32:38;;;;;;;0.50;0.25;;;16.20;69.40;;;;;;4993074;28;20381;-73
2022/08/14 02:35:12;;;;;;;0.47;0.20;;;16.30;69.40;;;;;;4993706;28;20923;-73
2022/08/14 02:37:39;;;;;;;0.30;0.22;;;16.30;69.70;;;;;;4993582;28;20932;-73
2022/08/14 02:40:08;;;;;;;0.30;0.30;;;16.70;70.00;;;;;;4992513;28;20884;-73
2022/08/14 02:42:36;;;;;;;1.10;0.20;;;16.90;68.70;;;;;;4993048;28;20472;-74
2022/08/14 02:45:04;;;;;;;0.40;0.30;;;17.00;69.50;;;;;;4993291;28;20463;-73
2022/08/14 02:47:32;;;;;;;0.68;0.30;;;17.20;67.70;;;;;;4992660;28;20503;-73
2022/08/14 02:50:00;;;;;;;1.10;0.20;;;17.30;66.00;;;;;;4993084;28;20458;-73
2022/08/14 02:52:27;;;;;;;0.63;0.30;;;17.60;64.20;;;;;;4993273;28;20408;-74
2022/08/14 02:54:55;;;;;;;0.50;0.30;;;17.90;62.40;;;;;;4992452;28;20400;-73
2022/08/14 02:57:23;;;;;;;0.20;0.20;;;17.40;62.70;;;;;;4992888;28;20373;-72
2022/08/14 02:59:52;;;;;;;0.20;0.20;;;17.10;63.00;;;;;;4979244;28;20737;-72
2022/08/14 03:02:20;;;;;;;0.60;0.30;;;16.60;65.20;;;;;;4992485;28;20377;-74
2022/08/14 03:04:47;;;;;;;0.30;0.20;;;16.50;65.60;;;;;;4988869;28;20401;-73
2022/08/14 03:07:15;;;;;;;0.10;0.10;;;16.40;66.40;;;;;;4993249;28;20758;-73
2022/08/14 03:09:42;;;;;;;0.10;0.10;;;16.30;66.40;;;;;;4992067;28;20393;-73
2022/08/14 03:12:11;;;;;;;0.40;0.20;;;16.10;66.90;;;;;;4989461;28;20526;-74
2022/08/14 03:14:47;;;;;;;0.20;0.20;;;16.00;68.00;;;;;;4992830;28;20373;-73
2022/08/14 03:17:14;;;;;;;0.30;0.20;;;16.10;68.30;;;;;;4992583;28;20478;-73
2022/08/14 03:19:42;;;;;;;0.80;0.20;;;16.10;68.70;;;;;;4992652;28;20423;-73
2022/08/14 03:22:09;;;;;;;0.22;0.20;;;16.20;68.80;;;;;;4992266;28;20384;-73
2022/08/14 03:24:37;;;;;;;0.10;0.10;;;16.20;69.50;;;;;;4990802;28;20397;-74
2022/08/14 03:27:04;;;;;;;0.10;0.10;;;16.10;68.70;;;;;;4991203;28;20750;-73
2022/08/14 03:29:32;;;;;;;0.30;0.20;;;16.00;69.10;;;;;;4992087;28;20384;-73
2022/08/14 03:31:59;;;;;;;0.20;0.20;;;16.00;69.80;;;;;;4991137;28;20396;-76
2022/08/14 03:34:26;;;;;;;0.25;0.25;;;16.10;69.60;;;;;;4992187;28;20381;-73
2022/08/14 03:36:57;;;;;;;0.20;0.13;;;16.00;69.50;;;;;;4991919;28;20380;-73
2022/08/14 03:39:25;;;;;;;0.30;0.20;;;16.10;70.20;;;;;;4991765;28;20388;-74
2022/08/14 03:41:55;;;;;;;0.10;0.10;;;16.10;70.10;;;;;;4992241;28;20420;-73
2022/08/14 03:44:24;;;;;;;0.20;0.20;;;16.10;70.60;;;;;;4992029;28;20393;-74
2022/08/14 03:46:51;;;;;;;0.15;0.15;;;16.10;70.90;;;;;;4992331;28;20430;-74
2022/08/14 03:49:24;;;;;;;0.70;0.52;;;16.20;70.50;;;;;;4991757;28;20397;-73
2022/08/14 03:51:51;;;;;;;0.40;0.20;;;16.40;71.30;;;;;;4992429;28;20392;-73
2022/08/14 03:54:18;;;;;;;0.20;0.20;;;16.50;71.20;;;;;;4993114;28;20480;-74
2022/08/14 03:56:45;;;;;;;0.50;0.28;;;16.60;71.10;;;;;;4997261;28;20405;-76
2022/08/14 03:59:13;;;;;;;0.70;0.20;;;16.50;69.90;;;;;;4995673;28;20444;-76
2022/08/14 04:01:40;;;;;;;1.25;0.32;;;16.50;70.20;;;;;;4993530;28;20752;-73
2022/08/14 04:04:09;;;;;;;0.20;0.20;;;16.60;71.00;;;;;;4992207;28;20993;-74
2022/08/14 04:06:37;;;;;;;0.20;0.20;;;16.60;71.40;;;;;;4991904;28;20409;-74
2022/08/14 04:09:06;;;;;;;0.20;0.20;;;16.60;69.00;;;;;;4991457;28;20388;-74
2022/08/14 04:11:35;;;;;;;0.90;0.32;;;16.60;69.10;;;;;;4991367;28;20385;-73
2022/08/14 04:14:04;;;;;;;0.30;0.27;;;16.60;68.30;;;;;;4978922;28;20468;-73
2022/08/14 04:16:31;;;;;;;0.40;0.20;;;16.60;68.40;;;;;;4991731;28;20377;-73
2022/08/14 04:19:00;;;;;;;1.30;0.20;;;16.60;69.50;;;;;;4991396;28;20820;-74
2022/08/14 04:21:28;;;;;;;0.85;0.15;;;16.70;68.60;;;;;;4991362;28;20396;-74
2022/08/14 04:23:57;;;;;;;0.50;0.25;;;16.80;68.50;;;;;;4990967;28;20428;-74
2022/08/14 04:26:27;;;;;;;0.30;0.28;;;17.40;68.30;;;;;;4990932;28;20412;-74
2022/08/14 04:28:55;;;;;;;0.95;0.20;;;18.40;66.00;;;;;;4991068;28;20381;-76
2022/08/14 04:31:23;;;;;;;0.10;0.10;;;19.80;63.70;;;;;;4991386;28;20391;-74
2022/08/14 04:33:52;;;;;;;0.60;0.00;;;19.90;58.00;;;;;;4991009;28;20406;-74
2022/08/14 04:36:19;;;;;;;0.20;0.20;;;19.60;58.30;;;;;;4972857;28;20405;-73
2022/08/14 04:43:34;;;;;;;0.50;0.10;;;19.70;59.90;;;;;;4987517;28;20440;-75
2022/08/14 04:44:19;;;;;;;0.15;0.15;;;19.50;59.20;;;;;;4985568;28;20397;-75
2022/08/14 04:49:35;;;;;;;0.10;0.10;;;19.70;60.10;;;;;;4977452;28;20367;-77
2022/08/14 04:52:05;;;;;;;0.28;0.28;;;19.40;58.90;;;;;;4990541;28;20748;-77
2022/08/14 04:54:32;;;;;;;1.30;0.10;;;19.50;60.20;;;;;;4990351;28;20400;-77
2022/08/14 04:56:59;;;;;;;0.10;0.10;;;19.50;59.10;;;;;;4990628;28;20407;-76
2022/08/14 04:59:26;;;;;;;0.70;0.10;;;19.90;58.70;;;;;;4990222;28;20381;-77
2022/08/14 05:01:53;;;;;;;0.70;0.28;;;19.80;58.70;;;;;;4989932;28;20401;-77
2022/08/14 05:04:23;;;;;;;0.20;0.20;;;19.70;59.00;;;;;;4990340;28;20943;-77
2022/08/14 05:06:53;;;;;;;0.10;0.10;;;20.00;58.70;;;;;;4991043;28;20867;-78
2022/08/14 05:09:20;;;;;;;0.10;0.10;;;20.10;58.00;;;;;;4990934;28;20935;-77
2022/08/14 05:11:49;;;;;;;0.10;0.10;;;20.50;56.00;;;;;;4982766;28;20887;-77
2022/08/14 05:14:17;;;;;;;0.20;0.10;;;19.90;57.10;;;;;;4980073;28;20746;-78
2022/08/14 05:16:45;;;;;;;0.10;0.10;;;19.60;58.00;;;;;;4990892;28;20475;-76
2022/08/14 05:19:12;;;;;;;0.20;0.10;;;18.90;59.80;;;;;;4973440;28;20443;-76
2022/08/14 05:21:42;;;;;;;0.10;0.10;;;18.70;60.80;;;;;;4990535;28;20399;-77
2022/08/14 05:24:11;;;;;;;0.10;0.10;;;18.40;60.90;;;;;;4990777;28;20381;-76
2022/08/14 05:26:40;;;;;;;0.30;0.20;;;18.30;62.00;;;;;;4990573;28;20408;-76
2022/08/14 05:29:08;;;;;;;0.10;0.10;;;18.60;62.70;;;;;;4990982;28;20456;-77
2022/08/14 05:31:44;;;;;;;0.20;0.10;;;18.80;61.10;;;;;;4990922;28;20405;-75
2022/08/14 05:34:11;;;;;;;0.10;0.10;;;18.60;60.90;;;;;;4990847;28;20369;-76
2022/08/14 05:36:39;;;;;;;0.73;0.10;;;18.20;60.50;;;;;;4990652;28;20480;-76
2022/08/14 05:39:06;;;;;;;0.20;0.10;;;17.70;62.10;;;;;;4990673;28;20804;-76
2022/08/14 05:41:35;;;;;;;0.95;0.38;;;17.70;63.20;;;;;;4990502;28;20476;-76
2022/08/14 05:44:02;;;;;;;0.70;0.30;;;17.20;63.00;;;;;;4990553;28;20368;-76
2022/08/14 05:46:30;;;;;;;0.30;0.20;;;16.90;63.90;;;;;;4990303;28;20415;-76
2022/08/14 05:48:58;;;;;;;0.70;0.50;;;16.70;64.60;;;;;;4991978;28;20388;-77
2022/08/14 05:51:27;;;;;;;3.10;2.42;;;16.40;66.00;;;;;;4993924;28;20412;-75
2022/08/14 05:53:55;;;;;;;2.53;2.33;;;16.30;67.40;;;;;;4994180;28;20428;-76
2022/08/14 05:56:24;;;;;;;1.88;1.77;;;16.40;68.10;;;;;;4994108;28;20476;-76
2022/08/14 05:58:52;;;;;;;1.92;1.83;;;16.40;68.30;;;;;;4993798;28;20384;-76
2022/08/14 06:01:19;;;;;;;0.95;0.95;;;16.40;66.90;;;;;;4993587;28;20395;-74
2022/08/14 06:03:46;;;;;;;3.17;2.87;;;16.50;68.20;;;;;;4993380;28;20455;-75
2022/08/14 06:06:14;;;;;;;0.93;0.70;;;16.50;67.60;;;;;;4993162;28;20464;-76
2022/08/14 06:08:41;;;;;;;1.33;1.23;;;16.40;68.20;;;;;;4993791;28;20388;-76
2022/08/14 06:11:09;;;;;;;0.40;0.30;;;16.40;67.90;;;;;;4993837;28;20546;-76
2022/08/14 06:13:41;;;;;;;0.95;0.40;;;16.30;67.90;;;;;;4980422;28;20389;-79
2022/08/14 06:16:09;;;;;;;0.60;0.47;;;16.20;68.40;;;;;;4993514;28;20385;-78
2022/08/14 06:18:36;;;;;;;0.55;0.55;;;15.90;69.00;;;;;;4993586;28;20385;-75
2022/08/14 06:21:04;;;;;;;2.42;1.85;;;15.80;69.60;;;;;;4974866;28;20428;-78
2022/08/14 06:23:32;;;;;;;2.20;1.13;;;15.60;71.00;;;;;;4993294;28;20721;-79
2022/08/14 06:25:59;;;;;;;0.40;0.40;;;15.50;71.50;;;;;;4993377;28;20922;-81
2022/08/14 06:28:27;;;;;;;1.55;0.82;;;15.40;70.00;;;;;;4993766;28;20389;-79
2022/08/14 06:30:55;;;;;;;0.50;0.50;;;15.40;70.80;;;;;;4993450;28;20381;-75
2022/08/14 06:33:23;;;;;;;1.40;1.27;;;15.30;71.60;;;;;;4993916;28;20536;-81
2022/08/14 06:35:50;;;;;;;0.43;0.43;;;15.30;72.80;;;;;;4993414;28;20388;-76
2022/08/14 06:38:20;;;;;;;0.40;0.40;;;15.30;72.90;;;;;;4993312;28;20392;-75
2022/08/14 06:40:48;;;;;;;2.15;1.60;;;15.30;73.00;;;;;;4992982;28;20943;-76
2022/08/14 06:43:17;;;;;;;0.60;0.60;;;15.30;73.30;;;;;;4975819;28;20412;-76
2022/08/14 06:45:46;;;;;;;1.83;0.80;;;15.20;73.70;;;;;;4993558;28;20468;-80
2022/08/14 06:48:18;;;;;;;0.50;0.50;;;15.10;74.30;;;;;;4993445;28;20372;-78
2022/08/14 06:50:46;;;;;;;0.70;0.40;;;15.10;75.30;;;;;;4993269;28;20400;-80
2022/08/14 06:53:15;;;;;;;0.73;0.47;;;15.10;75.50;;;;;;4995919;28;20396;-79
2022/08/14 06:55:44;;;;;;;0.30;0.30;;;15.10;75.50;;;;;;4997510;28;20387;-78
2022/08/14 06:58:15;;;;;;;0.52;0.50;;;15.00;75.60;;;;;;4999171;28;20884;-79
2022/08/14 07:06:15;;;;;;;1.00;0.40;;;14.80;77.60;;;;;;4990499;28;20416;-79
2022/08/14 07:08:43;;;;;;;0.60;0.40;;;14.60;77.20;;;;;;4942979;28;20401;-77
2022/08/14 07:11:11;;;;;;;0.40;0.40;;;14.50;77.50;;;;;;4993104;28;20943;-77
2022/08/14 07:13:39;;;;;;;0.30;0.30;;;14.30;77.80;;;;;;4978810;28;20391;-75
2022/08/14 07:16:06;;;;;;;0.45;0.45;;;14.30;78.80;;;;;;4992476;28;20405;-77
2022/08/14 07:18:35;;;;;;;0.25;0.25;;;14.10;79.40;;;;;;4992467;28;20397;-74
2022/08/14 07:21:04;;;;;;;0.50;0.40;;;14.10;79.90;;;;;;4992728;28;20385;-76
2022/08/14 07:23:32;;;;;;;0.30;0.30;;;14.00;80.90;;;;;;4974573;28;20400;-74
2022/08/14 07:26:01;;;;;;;1.00;0.60;;;13.80;81.80;;;;;;4992165;28;20436;-86
2022/08/14 07:28:36;;;;;;;0.57;0.40;;;13.80;83.00;;;;;;4992643;28;20885;-77
2022/08/14 07:31:09;;;;;;;1.30;0.40;;;13.70;84.20;;;;;;4979904;28;20379;-74
2022/08/14 07:33:44;;;;;;;2.15;1.50;;;13.60;84.90;;;;;;4992524;28;20860;-77
2022/08/14 07:36:14;;;;;;;0.40;0.40;;;13.50;86.20;;;;;;4992030;28;20395;-77
2022/08/14 07:38:42;;;;;;;0.47;0.40;;;13.50;85.00;;;;;;4991547;28;20488;-75
2022/08/14 07:41:11;;;;;;;0.40;0.40;;;13.50;85.40;;;;;;4980628;28;20420;-80
2022/08/14 07:43:40;;;;;;;0.37;0.30;;;13.40;85.70;;;;;;4992202;28;20393;-79
2022/08/14 07:46:07;;;;;;;0.63;0.57;;;13.40;86.30;;;;;;4990816;28;20419;-76
2022/08/14 07:48:39;;;;;;;0.50;0.40;;;13.20;87.40;;;;;;4991520;28;20381;-76
2022/08/14 07:51:07;;;;;;;1.30;0.60;;;13.20;87.80;;;;;;4991886;28;20393;-76
2022/08/14 07:53:34;;;;;;;0.47;0.47;;;13.10;88.00;;;;;;4991567;28;20397;-79
2022/08/14 07:56:02;;;;;;;0.50;0.50;;;13.10;88.20;;;;;;4991756;28;20967;-80
2022/08/14 07:58:30;;;;;;;0.60;0.60;;;13.10;89.00;;;;;;4992105;28;20393;-75
2022/08/14 08:00:58;;;;;;;0.60;0.60;;;13.00;89.50;;;;;;4990818;28;20415;-75
2022/08/14 08:03:28;;;;;;;1.52;0.70;;;13.00;90.00;;;;;;4986780;28;20381;-74
2022/08/14 08:05:56;;;;;;;1.35;0.80;;;12.80;90.30;;;;;;4990985;28;20412;-76
2022/08/14 08:08:25;;;;;;;1.00;0.80;;;12.80;90.90;;;;;;4991709;28;20843;-78
2022/08/14 08:10:56;;;;;;;0.82;0.80;;;12.80;91.50;;;;;;4991161;28;20384;-80
2022/08/14 08:13:25;;;;;;;0.60;0.60;;;12.70;91.70;;;;;;4978965;28;20458;-77
2022/08/14 08:15:55;;;;;;;1.20;0.60;;;12.60;91.90;;;;;;4991597;28;20399;-76
2022/08/14 08:18:27;;;;;;;0.82;0.70;;;12.60;92.40;;;;;;4992491;28;20394;-76
2022/08/14 08:20:55;;;;;;;1.25;0.80;;;12.60;92.50;;;;;;4995277;28;20393;-75
2022/08/14 08:23:27;;;;;;;1.50;1.20;;;12.60;92.70;;;;;;4991617;28;20393;-75
2022/08/14 08:25:57;;;;;;;1.42;1.25;;;12.50;93.10;;;;;;4994933;28;20768;-75
2022/08/14 08:28:27;;;;;;;1.30;1.20;;;12.50;93.40;;;;;;4996269;28;20385;-78
2022/08/14 08:31:07;;;;;;;1.00;0.90;;;12.40;94.00;;;;;;4994799;28;20484;-78
2022/08/14 08:33:35;;;;;;;0.70;0.70;;;12.40;94.10;;;;;;4994275;28;20864;-79
2022/08/14 08:36:10;;;;;;;0.70;0.68;;;12.40;94.30;;;;;;4994626;28;20380;-76
2022/08/14 08:38:37;;;;;;;1.00;0.60;;;12.40;94.90;;;;;;4995096;28;20368;-76
2022/08/14 08:41:04;;;;;;;0.60;0.60;;;12.40;94.80;;;;;;4993675;28;20384;-76
2022/08/14 08:43:35;;;;;;;0.70;0.70;;;12.30;94.90;;;;;;4975104;28;20896;-76
2022/08/14 08:46:14;;;;;;;0.60;0.60;;;12.30;95.20;;;;;;4994881;28;20408;-73
2022/08/14 08:48:51;;;;;;;0.65;0.65;;;12.20;95.40;;;;;;4971239;28;20401;-75
2022/08/14 08:51:28;;;;;;;3.20;0.63;;;12.20;95.50;;;;;;4971791;28;20390;-73
2022/08/14 08:54:05;;;;;;;1.05;0.70;;;12.20;95.10;;;;;;4972898;28;20401;-75
2022/08/14 08:56:40;;;;;;;0.80;0.80;;;12.30;95.00;;;;;;4958763;28;20405;-76
2022/08/14 08:59:19;;;;;;;1.58;0.80;;;12.40;95.10;;;;;;4955937;28;20395;-74
2022/08/14 09:01:52;;;;;;;0.60;0.60;;;12.40;95.40;;;;;;4970594;28;21039;-75
2022/08/14 09:04:20;;;;;;;0.50;0.50;;;12.30;95.40;;;;;;4970347;28;20879;-75
2022/08/14 09:06:52;;;;;;;0.55;0.55;;;12.30;95.70;;;;;;4972836;28;20422;-83
2022/08/14 09:09:27;;;;;;;1.33;0.50;;;12.30;96.30;;;;;;4955487;28;20410;-78
2022/08/14 09:11:58;;;;;;;1.00;1.00;;;12.20;96.40;;;;;;4964348;28;20394;-86
2022/08/14 09:14:33;;;;;;;0.60;0.60;;;12.10;96.70;;;;;;4974307;28;20407;-87
2022/08/14 09:17:01;;;;;;;0.70;0.70;;;12.00;97.10;;;;;;4972487;28;20763;-80
2022/08/14 09:19:28;;;;;;;1.80;0.80;;;11.90;97.50;;;;;;4982894;28;20384;-82
2022/08/14 09:21:56;;;;;;;0.60;0.60;;;11.90;97.50;;;;;;4993938;28;20389;-78
2022/08/14 09:24:23;;;;;;;1.33;0.70;;;12.00;97.10;;;;;;4999955;28;20389;-75
2022/08/14 09:26:53;;;;;;;0.70;0.68;;;12.10;96.60;;;;;;4998020;28;20415;-79
2022/08/14 09:29:20;;;;;;;0.50;0.50;;;12.10;96.50;;;;;;4999447;28;20450;-75
2022/08/14 09:31:59;;;;;;;0.43;0.43;;;12.10;96.70;;;;;;5000643;28;20471;-78
2022/08/14 09:34:41;;;;;;;0.70;0.60;;;12.10;96.20;;;;;;4992557;28;20385;-79
2022/08/14 09:37:21;;;;;;;0.60;0.60;;;12.10;96.50;;;;;;4997965;28;20428;-78
2022/08/14 09:40:10;;;;;;;0.70;0.70;;;12.10;96.50;;;;;;4986655;28;20389;-77
2022/08/14 09:42:58;;;;;;;1.05;0.90;;;12.10;96.30;;;;;;4999891;28;20384;-77
2022/08/14 09:45:35;;;;;;;1.50;1.10;;;12.10;96.40;;;;;;4995193;28;20754;-78
2022/08/14 09:48:13;;;;;;;1.73;1.00;;;12.00;96.70;;;;;;4987711;28;20453;-77
2022/08/14 09:50:48;;;;;;;2.63;1.30;;;12.10;96.60;;;;;;4994296;28;20449;-78
2022/08/14 09:53:36;;;;;;;1.33;1.20;;;12.00;96.60;;;;;;4989183;28;20457;-78
2022/08/14 09:56:08;;;;;;;1.40;1.30;;;11.90;97.40;;;;;;4993734;28;20749;-76
2022/08/14 09:58:40;;;;;;;1.45;1.20;;;11.90;97.00;;;;;;4995453;28;20389;-78
2022/08/14 10:01:14;;;;;;;1.70;0.70;;;11.90;97.50;;;;;;4994474;28;20384;-77
2022/08/14 10:03:54;;;;;;;0.70;0.70;;;11.90;97.30;;;;;;4995932;28;20409;-79
2022/08/14 10:06:24;;;;;;;0.70;0.70;;;11.90;97.40;;;;;;4995062;28;20409;-76
2022/08/14 10:09:04;;;;;;;0.60;0.60;;;12.00;97.60;;;;;;4978118;28;20878;-76
2022/08/14 10:11:36;;;;;;;0.80;0.70;;;11.90;97.60;;;;;;4999132;28;20396;-76
2022/08/14 10:14:17;;;;;;;0.70;0.70;;;11.90;97.50;;;;;;4985965;28;20377;-77
2022/08/14 10:16:47;;;;;;;0.82;0.82;;;11.90;97.70;;;;;;4995140;28;20385;-78
2022/08/14 10:19:17;;;;;;;1.80;0.90;;;11.90;97.90;;;;;;4995493;28;20408;-76
2022/08/14 10:22:07;;;;;;;1.20;1.00;;;11.80;97.90;;;;;;4994904;28;20424;-76
2022/08/14 10:24:40;;;;;;;0.80;0.80;;;11.90;97.90;;;;;;4993517;28;20397;-77
2022/08/14 10:27:18;;;;;;;1.65;1.55;;;11.80;98.20;;;;;;4943924;28;20424;-77
2022/08/14 10:29:53;;;;;;;2.40;1.80;;;11.60;98.50;;;;;;4999380;28;20383;-76
2022/08/14 10:32:21;;;;;;;2.53;1.77;;;11.50;99.10;;;;;;4996090;28;20388;-76
2022/08/14 10:34:49;;;;;;;1.08;0.80;;;11.50;99.30;;;;;;4994641;28;20437;-77
2022/08/14 10:37:18;;;;;;;1.75;0.80;;;11.50;99.40;;;;;;5000832;28;20908;-76
2022/08/14 10:39:59;;;;;;;0.88;0.88;;;11.50;99.40;;;;;;5011245;28;20415;-78
2022/08/14 10:42:36;;;;;;;0.77;0.77;;;11.50;99.50;;;;;;5014188;28;20420;-75
2022/08/14 10:45:17;;;;;;;1.58;1.00;;;11.40;99.50;;;;;;5011542;28;20389;-76
2022/08/14 10:47:44;;;;;;;1.23;1.00;;;11.40;99.70;;;;;;5001438;28;20395;-76
2022/08/14 10:50:12;;;;;;;0.80;0.80;;;11.40;99.90;;;;;;4997501;28;20392;-76
2022/08/14 10:52:41;;;;;;;0.60;0.60;;;11.40;99.50;;;;;;4997787;28;20927;-76
2022/08/14 10:55:12;;;;;;;1.20;0.60;;;11.50;99.30;;;;;;4997064;28;20930;-75
2022/08/14 10:57:49;;;;;;;0.65;0.60;;;11.60;99.30;;;;;;4993285;28;20404;-76
2022/08/14 11:00:22;;;;;;;0.90;0.50;;;11.50;99.10;;;;;;4992623;28;20788;-77
2022/08/14 11:03:06;;;;;;;0.40;0.40;;;11.60;99.00;;;;;;4992917;28;20397;-76
2022/08/14 11:05:48;;;;;;;0.80;0.50;;;11.70;98.60;;;;;;4993058;28;20463;-77
2022/08/14 11:08:18;;;;;;;0.43;0.43;;;11.70;98.60;;;;;;4992856;28;20444;-77
2022/08/14 11:10:47;;;;;;;0.35;0.35;;;11.90;98.50;;;;;;4993344;28;20431;-76
2022/08/14 11:13:30;;;;;;;0.95;0.40;;;11.90;98.20;;;;;;4990903;28;20870;-77
2022/08/14 11:16:00;;;;;;;0.40;0.40;;;12.00;98.00;;;;;;4992090;28;20381;-77
2022/08/14 11:18:29;;;;;;;0.40;0.40;;;11.90;98.00;;;;;;4992685;28;20389;-76
2022/08/14 11:20:59;;;;;;;1.40;0.47;;;12.00;97.80;;;;;;4992083;28;20385;-76
2022/08/14 11:23:37;;;;;;;0.40;0.40;;;12.10;97.70;;;;;;4992095;28;20476;-76
2022/08/14 11:26:07;;;;;;;0.57;0.57;;;12.10;97.80;;;;;;4992790;28;20408;-76
2022/08/14 11:28:39;;;;;;;1.05;0.50;;;12.10;97.80;;;;;;4991650;28;20397;-76
2022/08/14 11:31:09;;;;;;;0.70;0.60;;;12.10;97.70;;;;;;4992229;28;20436;-77
2022/08/14 11:33:37;;;;;;;0.82;0.50;;;12.10;98.10;;;;;;4975049;28;20764;-76
2022/08/14 11:36:06;;;;;;;0.93;0.63;;;12.10;97.80;;;;;;4978878;28;20404;-76
2022/08/14 11:38:41;;;;;;;0.60;0.60;;;12.10;97.90;;;;;;4992019;28;20389;-77
2022/08/14 11:41:10;;;;;;;0.65;0.60;;;12.10;97.90;;;;;;4992080;28;20401;-77
2022/08/14 11:43:46;;;;;;;0.40;0.40;;;12.20;97.60;;;;;;4992096;28;20385;-77
2022/08/14 11:46:14;;;;;;;0.60;0.60;;;12.20;97.60;;;;;;4990228;28;20415;-76
2022/08/14 11:48:54;;;;;;;0.70;0.70;;;12.20;97.30;;;;;;4991690;28;20464;-76
2022/08/14 11:51:25;;;;;;;0.80;0.80;;;12.20;97.90;;;;;;4979011;28;20384;-76
2022/08/14 11:54:01;;;;;;;0.80;0.80;;;12.10;97.90;;;;;;4991799;28;20761;-75
2022/08/14 11:56:36;;;;;;;0.95;0.95;;;12.00;98.30;;;;;;4981733;28;20495;-76
2022/08/14 11:59:05;;;;;;;1.17;1.10;;;12.00;98.60;;;;;;4991594;28;20387;-75
2022/08/14 12:01:33;;;;;;;1.50;1.10;;;12.00;98.30;;;;;;4991369;28;20397;-78
2022/08/14 12:04:17;;;;;;;1.70;1.10;;;11.90;98.60;;;;;;4991055;28;20451;-76
2022/08/14 12:06:49;;;;;;;1.00;0.90;;;12.00;98.80;;;;;;4987562;28;20487;-78
2022/08/14 12:09:37;;;;;;;2.10;1.10;;;11.90;98.40;;;;;;4991327;28;20490;-77
2022/08/14 12:12:24;;;;;;;0.95;0.90;;;11.90;98.70;;;;;;4982578;28;20393;-77
2022/08/14 12:14:59;;;;;;;0.85;0.80;;;11.90;99.00;;;;;;4991481;28;20895;-77
2022/08/14 12:17:32;;;;;;;1.08;0.88;;;11.80;99.00;;;;;;4979024;28;20460;-76
2022/08/14 12:20:05;;;;;;;1.00;0.80;;;11.80;99.50;;;;;;4991631;28;20384;-76
2022/08/14 12:22:42;;;;;;;0.90;0.90;;;11.80;99.60;;;;;;4990383;28;20385;-77
2022/08/14 12:25:22;;;;;;;0.90;0.90;;;11.80;99.70;;;;;;4990827;28;20384;-77
2022/08/14 12:27:52;;;;;;;1.23;0.88;;;11.70;99.60;;;;;;4990587;28;20393;-76
2022/08/14 12:30:42;;;;;;;0.73;0.70;;;11.80;99.80;;;;;;4989925;28;20388;-77
2022/08/14 12:33:29;;;;;;;0.80;0.80;;;11.80;99.70;;;;;;4973516;28;20535;-78
2022/08/14 12:35:59;;;;;;;1.02;0.88;;;11.80;99.70;;;;;;4991440;28;20745;-75
2022/08/14 12:38:40;;;;;;;0.80;0.80;;;11.80;99.60;;;;;;4990772;28;20407;-76
2022/08/14 12:41:21;;;;;;;0.82;0.70;;;11.80;99.60;;;;;;4990374;28;20447;-75
2022/08/14 12:43:55;;;;;;;1.50;0.90;;;11.80;99.50;;;;;;4990845;28;20393;-75
2022/08/14 12:46:25;;;;;;;0.80;0.80;;;11.80;99.30;;;;;;4986656;28;20408;-75
2022/08/14 12:48:53;;;;;;;0.63;0.63;;;11.80;99.60;;;;;;4990706;28;20385;-76
2022/08/14 12:51:24;;;;;;;0.57;0.50;;;11.80;99.80;;;;;;4989685;28;20884;-77
2022/08/14 12:53:53;;;;;;;0.68;0.55;;;11.70;99.80;;;;;;4971561;28;20876;-75
2022/08/14 12:56:24;;;;;;;0.95;0.60;;;11.60;99.90;;;;;;4990650;28;20384;-76
2022/08/14 12:58:57;;;;;;;0.65;0.40;;;11.60;99.90;;;;;;4987099;28;20384;-77
2022/08/14 13:01:27;;;;;;;0.40;0.40;;;11.60;99.90;;;;;;4973558;28;20401;-77
2022/08/14 13:04:12;;;;;;;0.50;0.40;;;11.70;99.90;;;;;;4990066;28;20444;-76
2022/08/14 13:06:45;;;;;;;0.30;0.30;;;11.60;99.90;;;;;;4983666;28;20511;-77
2022/08/14 13:09:16;;;;;;;0.30;0.30;;;11.60;99.90;;;;;;4989577;28;20798;-76
2022/08/14 13:11:45;;;;;;;0.50;0.30;;;11.70;99.80;;;;;;4990932;28;20418;-76
2022/08/14 13:14:15;;;;;;;0.20;0.20;;;11.70;99.80;;;;;;4991833;28;20408;-76
2022/08/14 13:16:43;;;;;;;0.40;0.30;;;11.80;99.90;;;;;;4994506;28;20884;-77